createdAt,value
2023-10-20T00:00:55.885Z,97139.34
2023-10-20T00:03:22.879Z,97130.63
2023-10-20T00:05:49.866Z,97140.25
2023-10-20T00:08:16.842Z,97151.19
2023-10-20T00:10:43.802Z,97150.00
2023-10-20T00:13:10.732Z,97160.09
2023-10-20T00:15:38.325Z,97154.34
2023-10-20T00:18:05.778Z,97131.44
2023-10-20T00:20:32.889Z,97123.97
2023-10-20T00:22:59.849Z,97121.69
2023-10-20T00:25:26.795Z,97118.66
2023-10-20T00:27:53.666Z,97126.31
2023-10-20T00:30:20.741Z,97114.38
2023-10-20T00:32:47.691Z,97095.75
2023-10-20T00:35:15.144Z,97082.06
2023-10-20T00:37:43.200Z,97088.81
2023-10-20T00:40:12.828Z,97091.31
2023-10-20T00:42:39.848Z,97098.22
2023-10-20T00:45:08.386Z,97096.63
2023-10-20T00:47:36.379Z,97086.00
2023-10-20T00:50:03.691Z,97075.59
2023-10-20T00:52:31.002Z,97080.91
2023-10-20T00:55:00.293Z,97074.00
2023-10-20T00:57:27.464Z,97078.81
2023-10-20T00:59:54.546Z,97081.56
2023-10-20T01:02:21.723Z,97073.59
2023-10-20T01:04:49.189Z,97071.16
2023-10-20T01:07:16.474Z,97071.97
2023-10-20T01:09:46.472Z,97073.38
2023-10-20T01:12:13.371Z,97070.63
2023-10-20T01:14:40.546Z,97065.13
2023-10-20T01:17:08.448Z,97063.31
2023-10-20T01:19:35.355Z,97054.63
2023-10-20T01:22:02.270Z,97064.66
2023-10-20T01:24:29.381Z,97072.78
2023-10-20T01:26:56.571Z,97068.31
2023-10-20T01:29:23.553Z,97045.66
2023-10-20T01:31:51.345Z,97044.44
2023-10-20T01:34:18.473Z,97047.28
2023-10-20T01:36:45.494Z,97039.97
2023-10-20T01:39:12.394Z,97047.06
2023-10-20T01:41:39.952Z,97029.78
2023-10-20T01:44:06.969Z,97026.75
2023-10-20T01:46:34.137Z,97016.56
2023-10-20T01:49:01.092Z,97014.69
2023-10-20T01:51:28.267Z,97009.69
2023-10-20T01:53:56.046Z,97005.63
2023-10-20T01:56:23.835Z,96996.72
2023-10-20T01:58:50.856Z,97006.22
2023-10-20T02:01:17.857Z,96990.41
2023-10-20T02:03:44.907Z,96980.78
2023-10-20T02:06:12.166Z,96974.38
2023-10-20T02:08:39.126Z,96967.16
2023-10-20T02:11:06.190Z,96963.69
2023-10-20T02:13:33.225Z,96961.84
2023-10-20T02:16:01.008Z,96965.84
2023-10-20T02:18:28.510Z,96973.63
2023-10-20T02:21:01.071Z,96971.72
2023-10-20T02:23:28.745Z,96975.81
2023-10-20T02:26:05.067Z,96970.50
2023-10-20T02:28:36.168Z,96967.41
2023-10-20T02:31:17.119Z,96960.34
2023-10-20T02:33:44.642Z,96958.13
2023-10-20T02:36:20.245Z,96952.53
2023-10-20T02:38:48.621Z,96955.50
2023-10-20T02:41:16.363Z,96943.78
2023-10-20T02:43:43.270Z,96948.97
2023-10-20T02:46:10.434Z,96947.72
2023-10-20T02:48:37.422Z,96934.94
2023-10-20T02:51:13.060Z,96937.13
2023-10-20T02:53:42.105Z,96929.31
2023-10-20T02:56:12.176Z,96929.25
2023-10-20T02:58:40.022Z,96921.34
2023-10-20T03:01:08.364Z,96926.56
2023-10-20T03:03:35.675Z,96919.63
2023-10-20T03:06:05.073Z,96907.59
2023-10-20T03:08:33.015Z,96919.97
2023-10-20T03:11:00.405Z,96925.19
2023-10-20T03:13:29.204Z,96928.22
2023-10-20T03:15:56.115Z,96933.50
2023-10-20T03:18:23.087Z,96935.38
2023-10-20T03:20:51.041Z,96924.47
2023-10-20T03:23:19.035Z,96926.69
2023-10-20T03:25:46.113Z,96923.72
2023-10-20T03:28:12.980Z,96925.94
2023-10-20T03:30:41.665Z,96925.09
2023-10-20T03:33:10.635Z,96920.22
2023-10-20T03:35:38.151Z,96906.28
2023-10-20T03:38:06.228Z,96911.84
2023-10-20T03:40:33.194Z,96907.41
2023-10-20T03:43:00.134Z,96906.19
2023-10-20T03:45:27.071Z,96898.75
2023-10-20T03:47:55.140Z,96894.97
2023-10-20T03:50:22.086Z,96907.72
2023-10-20T03:52:49.815Z,96908.91
2023-10-20T03:55:16.906Z,96913.47
2023-10-20T03:57:46.084Z,96916.06
2023-10-20T04:00:15.335Z,96903.22
2023-10-20T04:02:42.589Z,96890.72
2023-10-20T04:05:09.861Z,96891.03
2023-10-20T04:07:36.792Z,96889.56
2023-10-20T04:10:03.828Z,96897.53
2023-10-20T04:12:30.823Z,96911.09
2023-10-20T04:14:57.795Z,96907.72
2023-10-20T04:17:25.039Z,96890.31
2023-10-20T04:19:52.058Z,96884.25
2023-10-20T04:22:19.018Z,96881.72
2023-10-20T04:24:45.950Z,96890.06
2023-10-20T04:27:13.436Z,96875.72
2023-10-20T04:29:40.426Z,96864.81
2023-10-20T04:32:07.479Z,96870.91
2023-10-20T04:34:34.441Z,96877.31
2023-10-20T04:37:01.496Z,96855.47
2023-10-20T04:39:28.416Z,96853.94
2023-10-20T04:41:55.399Z,96849.47
2023-10-20T04:44:22.534Z,96859.34
2023-10-20T04:46:50.896Z,96847.69
2023-10-20T04:49:17.648Z,96848.00
2023-10-20T04:51:44.478Z,96837.78
2023-10-20T04:54:11.280Z,96832.25
2023-10-20T04:56:38.203Z,96832.25
2023-10-20T04:59:05.190Z,96830.88
2023-10-20T05:01:33.713Z,96830.41
2023-10-20T05:04:00.782Z,96836.78
2023-10-20T05:06:27.770Z,96836.03
2023-10-20T05:08:54.818Z,96840.94
2023-10-20T05:11:21.703Z,96840.13
2023-10-20T05:13:48.546Z,96829.56
2023-10-20T05:16:15.448Z,96830.28
2023-10-20T05:18:42.502Z,96820.13
2023-10-20T05:21:09.968Z,96823.47
2023-10-20T05:23:37.605Z,96818.91
2023-10-20T05:26:04.987Z,96812.47
2023-10-20T05:28:32.085Z,96818.81
2023-10-20T05:30:59.194Z,96827.41
2023-10-20T05:33:26.204Z,96815.44
2023-10-20T05:35:54.142Z,96815.88
2023-10-20T05:38:20.993Z,96803.84
2023-10-20T05:41:01.485Z,96806.88
2023-10-20T05:43:29.038Z,96802.44
2023-10-20T05:45:56.056Z,96806.16
2023-10-20T05:48:22.932Z,96797.84
2023-10-20T05:50:58.801Z,96812.00
2023-10-20T05:53:26.466Z,96810.88
2023-10-20T05:55:53.976Z,96814.97
2023-10-20T05:58:20.815Z,96806.25
2023-10-20T06:01:01.782Z,96806.97
2023-10-20T06:03:29.751Z,96797.94
2023-10-20T06:06:01.023Z,96815.56
2023-10-20T06:08:29.456Z,96806.28
2023-10-20T06:11:07.013Z,96815.50
2023-10-20T06:13:35.817Z,96810.34
2023-10-20T06:16:10.508Z,96790.78
2023-10-20T06:18:39.864Z,96793.06
2023-10-20T06:21:12.398Z,96803.19
2023-10-20T06:23:39.210Z,96812.97
2023-10-20T06:26:06.243Z,96818.22
2023-10-20T06:28:33.563Z,96818.03
2023-10-20T06:31:00.403Z,96809.75
2023-10-20T06:33:27.846Z,96812.81
2023-10-20T06:35:54.869Z,96806.00
2023-10-20T06:38:23.515Z,96797.03
2023-10-20T06:40:50.493Z,96781.63
2023-10-20T06:43:17.896Z,96785.44
2023-10-20T06:45:46.021Z,96787.75
2023-10-20T06:48:12.935Z,96782.53
2023-10-20T06:50:40.128Z,96778.03
2023-10-20T06:53:07.115Z,96771.66
2023-10-20T06:58:24.230Z,96778.19
2023-10-20T07:00:51.043Z,96773.69
2023-10-20T07:03:18.022Z,96765.47
2023-10-20T07:05:45.737Z,96759.13
2023-10-20T07:08:12.740Z,96754.22
2023-10-20T07:10:39.624Z,96752.03
2023-10-20T07:13:07.146Z,96753.16
2023-10-20T07:15:37.180Z,96757.75
2023-10-20T07:18:05.138Z,96752.53
2023-10-20T07:20:33.043Z,96750.28
2023-10-20T07:23:00.877Z,96742.75
2023-10-20T07:25:28.664Z,96735.22
2023-10-20T07:27:56.224Z,96743.50
2023-10-20T07:30:24.358Z,96738.25
2023-10-20T07:32:52.057Z,96724.00
2023-10-20T07:35:19.512Z,96727.06
2023-10-20T07:37:46.547Z,96727.78
2023-10-20T07:40:13.788Z,96714.25
2023-10-20T07:42:42.049Z,96716.16
2023-10-20T07:45:09.723Z,96710.50
2023-10-20T07:47:36.723Z,96706.03
2023-10-20T07:50:04.263Z,96694.00
2023-10-20T07:52:32.408Z,96675.59
2023-10-20T07:54:59.262Z,96679.00
2023-10-20T07:57:26.130Z,96679.41
2023-10-20T07:59:52.989Z,96681.34
2023-10-20T08:02:19.844Z,96664.09
2023-10-20T08:04:46.980Z,96665.59
2023-10-20T08:07:13.994Z,96659.91
2023-10-20T08:09:41.045Z,96653.16
2023-10-20T08:12:07.918Z,96658.47
2023-10-20T08:14:34.803Z,96646.84
2023-10-20T08:17:01.813Z,96648.00
2023-10-20T08:19:28.631Z,96652.16
2023-10-20T08:21:55.586Z,96642.03
2023-10-20T08:24:22.543Z,96630.72
2023-10-20T08:26:50.006Z,96624.69
2023-10-20T08:29:16.885Z,96627.34
2023-10-20T08:31:43.799Z,96628.13
2023-10-20T08:34:10.721Z,96624.75
2023-10-20T08:36:37.639Z,96614.56
2023-10-20T08:39:04.796Z,96602.53
2023-10-20T08:41:31.652Z,96595.75
2023-10-20T08:43:58.737Z,96591.22
2023-10-20T08:46:27.036Z,96576.41
2023-10-20T08:48:55.029Z,96580.53
2023-10-20T08:51:22.828Z,96566.34
2023-10-20T08:53:49.677Z,96568.66
2023-10-20T08:56:16.684Z,96572.28
2023-10-20T08:58:46.764Z,96574.38
2023-10-20T09:01:14.846Z,96582.66
2023-10-20T09:03:45.196Z,96583.66
2023-10-20T09:06:14.444Z,96579.81
2023-10-20T09:08:42.677Z,96579.78
2023-10-20T09:11:10.525Z,96573.66
2023-10-20T09:13:39.260Z,96578.66
2023-10-20T09:16:15.556Z,96592.13
2023-10-20T09:18:49.713Z,96617.78
2023-10-20T09:21:25.614Z,96613.88
2023-10-20T09:24:01.947Z,96607.16
2023-10-20T09:26:31.991Z,96594.13
2023-10-20T09:28:59.567Z,96582.59
2023-10-20T09:31:29.244Z,96569.09
2023-10-20T09:33:56.519Z,96559.00
2023-10-20T09:36:23.676Z,96581.22
2023-10-20T09:38:55.235Z,96580.22
2023-10-20T09:41:27.118Z,96592.72
2023-10-20T09:44:08.541Z,96605.94
2023-10-20T09:46:54.237Z,96616.28
2023-10-20T09:49:24.394Z,96604.06
2023-10-20T09:51:54.324Z,96579.59
2023-10-20T09:54:33.753Z,96589.75
2023-10-20T09:57:01.949Z,96571.78
2023-10-20T09:59:29.448Z,96561.22
2023-10-20T10:01:57.742Z,96570.53
2023-10-20T10:04:29.527Z,96566.38
2023-10-20T10:06:56.917Z,96557.53
2023-10-20T10:09:23.829Z,96560.28
2023-10-20T10:11:55.852Z,96556.16
2023-10-20T10:14:24.388Z,96546.81
2023-10-20T10:16:53.011Z,96553.88
2023-10-20T10:19:20.747Z,96553.88
2023-10-20T10:21:51.099Z,96530.13
2023-10-20T10:24:20.737Z,96534.00
2023-10-20T10:26:57.730Z,96529.41
2023-10-20T10:29:52.810Z,96522.25
2023-10-20T10:32:24.289Z,96541.13
2023-10-20T10:34:56.604Z,96538.06
2023-10-20T10:37:35.713Z,96535.75
2023-10-20T10:40:22.883Z,96547.50
2023-10-20T10:42:53.739Z,96548.03
2023-10-20T10:45:24.733Z,96563.28
2023-10-20T10:48:03.721Z,96553.44
2023-10-20T10:50:31.203Z,96554.88
2023-10-20T10:52:58.063Z,96560.84
2023-10-20T10:55:25.080Z,96551.09
2023-10-20T10:57:53.225Z,96557.94
2023-10-20T11:00:20.878Z,96543.31
2023-10-20T11:02:48.536Z,96537.84
2023-10-20T11:05:17.179Z,96547.13
2023-10-20T11:08:04.733Z,96545.13
2023-10-20T11:10:33.799Z,96548.84
2023-10-20T11:13:28.699Z,96553.34
2023-10-20T11:15:55.591Z,96550.59
2023-10-20T11:18:22.685Z,96552.94
2023-10-20T11:20:49.985Z,96547.72
2023-10-20T11:23:16.892Z,96538.22
2023-10-20T11:25:43.938Z,96544.63
2023-10-20T11:28:11.145Z,96544.63
2023-10-20T11:30:40.018Z,96532.44
2023-10-20T11:33:07.433Z,96531.81
2023-10-20T11:35:34.726Z,96525.28
2023-10-20T11:38:02.213Z,96522.84
2023-10-20T11:40:30.271Z,96531.19
2023-10-20T11:42:57.483Z,96523.91
2023-10-20T11:45:25.114Z,96522.44
2023-10-20T11:47:52.548Z,96530.94
2023-10-20T11:50:19.982Z,96536.94
2023-10-20T11:52:47.152Z,96538.84
2023-10-20T11:55:14.545Z,96540.66
2023-10-20T11:57:42.092Z,96528.59
2023-10-20T12:00:10.305Z,96535.88
2023-10-20T12:02:41.142Z,96522.84
2023-10-20T12:05:08.994Z,96531.59
2023-10-20T12:07:36.477Z,96521.78
2023-10-20T12:10:04.049Z,96541.09
2023-10-20T12:12:30.989Z,96540.06
2023-10-20T12:14:58.041Z,96539.84
2023-10-20T12:17:25.020Z,96533.44
2023-10-20T12:19:51.985Z,96539.94
2023-10-20T12:22:18.856Z,96545.25
2023-10-20T12:24:45.781Z,96535.44
2023-10-20T12:27:14.351Z,96542.38
2023-10-20T12:29:41.660Z,96543.88
2023-10-20T12:32:08.801Z,96549.66
2023-10-20T12:34:35.850Z,96545.47
2023-10-20T12:37:02.894Z,96552.00
2023-10-20T12:39:29.805Z,96546.53
2023-10-20T12:41:56.823Z,96549.19
2023-10-20T12:44:23.748Z,96551.94
2023-10-20T12:46:50.742Z,96559.66
2023-10-20T12:49:17.738Z,96558.78
2023-10-20T12:51:44.722Z,96552.59
2023-10-20T12:54:11.534Z,96546.50
2023-10-20T12:56:38.407Z,96546.03
2023-10-20T12:59:05.322Z,96545.41
2023-10-20T13:01:32.149Z,96552.97
2023-10-20T13:03:59.041Z,96575.09
2023-10-20T13:06:25.882Z,96562.06
2023-10-20T13:08:52.877Z,96542.16
2023-10-20T13:11:19.912Z,96529.00
2023-10-20T13:13:46.776Z,96552.50
2023-10-20T13:16:13.697Z,96554.38
2023-10-20T13:18:40.723Z,96553.63
2023-10-20T13:21:07.710Z,96558.22
2023-10-20T13:23:34.908Z,96570.00
2023-10-20T13:26:02.677Z,96555.91
2023-10-20T13:28:29.516Z,96561.78
2023-10-20T13:31:08.974Z,96557.75
2023-10-20T13:33:36.383Z,96573.19
2023-10-20T13:36:04.504Z,96555.00
2023-10-20T13:38:33.029Z,96551.47
2023-10-20T13:41:00.226Z,96548.28
2023-10-20T13:43:27.205Z,96562.09
2023-10-20T13:45:54.182Z,96584.22
2023-10-20T13:48:21.145Z,96585.69
2023-10-20T13:50:48.203Z,96570.59
2023-10-20T13:53:15.716Z,96573.94
2023-10-20T13:55:43.797Z,96579.38
2023-10-20T13:58:10.811Z,96596.41
2023-10-20T14:00:37.793Z,96609.25
2023-10-20T14:03:05.406Z,96599.28
2023-10-20T14:05:33.156Z,96597.88
2023-10-20T14:08:01.071Z,96581.28
2023-10-20T14:10:28.808Z,96600.31
2023-10-20T14:12:57.245Z,96602.25
2023-10-20T14:15:25.054Z,96609.53
2023-10-20T14:17:52.013Z,96619.94
2023-10-20T14:20:19.470Z,96605.75
2023-10-20T14:22:46.381Z,96615.25
2023-10-20T14:25:13.165Z,96606.31
2023-10-20T14:27:40.652Z,96623.78
2023-10-20T14:30:08.268Z,96633.00
2023-10-20T14:32:35.451Z,96636.13
2023-10-20T14:35:02.732Z,96635.22
2023-10-20T14:37:30.914Z,96632.88
2023-10-20T14:39:58.841Z,96609.97
2023-10-20T14:42:25.704Z,96618.34
2023-10-20T14:44:52.589Z,96617.00
2023-10-20T14:47:19.544Z,96613.31
2023-10-20T14:49:46.573Z,96615.41
2023-10-20T14:52:13.795Z,96642.88
2023-10-20T14:54:42.478Z,96657.47
2023-10-20T14:57:09.434Z,96678.00
2023-10-20T14:59:36.663Z,96681.56
2023-10-20T15:02:06.904Z,96698.84
2023-10-20T15:04:34.045Z,96702.88
2023-10-20T15:07:01.293Z,96716.88
2023-10-20T15:09:28.212Z,96727.09
2023-10-20T15:11:55.347Z,96733.81
2023-10-20T15:14:22.404Z,96743.78
2023-10-20T15:16:49.457Z,96750.34
2023-10-20T15:19:17.175Z,96739.19
2023-10-20T15:21:44.527Z,96729.06
2023-10-20T15:24:11.524Z,96729.56
2023-10-20T15:26:38.437Z,96746.38
2023-10-20T15:29:05.362Z,96735.78
2023-10-20T15:31:32.499Z,96732.34
2023-10-20T15:33:59.565Z,96743.06
2023-10-20T15:36:26.987Z,96748.56
2023-10-20T15:38:53.855Z,96749.13
2023-10-20T15:41:20.851Z,96752.44
2023-10-20T15:43:47.739Z,96749.88
2023-10-20T15:46:14.666Z,96738.53
2023-10-20T15:48:42.680Z,96736.13
2023-10-20T15:51:10.001Z,96742.81
2023-10-20T15:53:37.017Z,96748.44
2023-10-20T15:56:04.102Z,96749.75
2023-10-20T15:58:30.992Z,96752.22
2023-10-20T16:00:59.232Z,96753.72
2023-10-20T16:03:26.439Z,96745.63
2023-10-20T16:05:53.638Z,96747.69
2023-10-20T16:08:20.486Z,96756.44
2023-10-20T16:10:47.394Z,96754.63
2023-10-20T16:13:14.342Z,96764.03
2023-10-20T16:15:41.204Z,96761.06
2023-10-20T16:18:08.223Z,96761.19
2023-10-20T16:20:35.548Z,96757.50
2023-10-20T16:23:02.506Z,96775.19
2023-10-20T16:25:29.496Z,96791.03
2023-10-20T16:27:56.537Z,96789.31
2023-10-20T16:30:23.537Z,96803.00
2023-10-20T16:32:50.771Z,96791.25
2023-10-20T16:35:17.910Z,96787.94
2023-10-20T16:37:46.227Z,96787.94
2023-10-20T16:40:13.785Z,96778.53
2023-10-20T16:42:41.032Z,96789.72
2023-10-20T16:45:08.646Z,96800.88
2023-10-20T16:47:35.887Z,96803.34
2023-10-20T16:50:03.208Z,96813.31
2023-10-20T16:52:32.365Z,96813.53
2023-10-20T16:54:59.506Z,96811.81
2023-10-20T16:57:26.925Z,96815.81
2023-10-20T16:59:54.300Z,96823.81
2023-10-20T17:02:22.074Z,96821.91
2023-10-20T17:04:49.237Z,96828.31
2023-10-20T17:07:16.409Z,96834.84
2023-10-20T17:09:43.464Z,96844.91
2023-10-20T17:12:11.177Z,96836.59
2023-10-20T17:14:38.364Z,96848.88
2023-10-20T17:17:05.402Z,96857.31
2023-10-20T17:19:32.578Z,96868.13
2023-10-20T17:21:59.665Z,96863.75
2023-10-20T17:24:26.938Z,96864.72
2023-10-20T17:26:53.914Z,96875.41
2023-10-20T17:29:22.601Z,96872.84
2023-10-20T17:31:50.297Z,96878.31
2023-10-20T17:34:17.930Z,96877.97
2023-10-20T17:36:45.580Z,96876.16
2023-10-20T17:39:12.662Z,96885.25
2023-10-20T17:41:40.301Z,96877.97
2023-10-20T17:44:07.701Z,96875.84
2023-10-20T17:46:35.114Z,96874.75
2023-10-20T17:49:02.583Z,96871.84
2023-10-20T17:51:29.982Z,96879.25
2023-10-20T17:53:58.133Z,96880.53
2023-10-20T17:56:26.252Z,96872.06
2023-10-20T17:58:53.442Z,96878.69
2023-10-20T18:01:21.646Z,96870.78
2023-10-20T18:03:49.386Z,96869.06
2023-10-20T18:06:21.406Z,96873.31
2023-10-20T18:08:51.559Z,96869.25
2023-10-20T18:11:20.989Z,96871.63
2023-10-20T18:13:50.279Z,96870.63
2023-10-20T18:16:21.220Z,96870.19
2023-10-20T18:18:50.624Z,96875.63
2023-10-20T18:21:20.941Z,96875.75
2023-10-20T18:23:49.236Z,96870.94
2023-10-20T18:26:16.971Z,96869.91
2023-10-20T18:28:44.610Z,96872.69
2023-10-20T18:31:16.743Z,96865.94
2023-10-20T18:33:48.139Z,96875.78
2023-10-20T18:36:15.859Z,96873.22
2023-10-20T18:38:43.745Z,96869.88
2023-10-20T18:41:18.023Z,96869.97
2023-10-20T18:43:46.024Z,96869.63
2023-10-20T18:46:14.441Z,96867.06
2023-10-20T18:48:42.729Z,96868.34
2023-10-20T18:51:12.490Z,96879.41
2023-10-20T18:53:42.531Z,96895.88
2023-10-20T18:56:10.911Z,96904.22
2023-10-20T18:58:39.171Z,96908.16
2023-10-20T19:03:51.826Z,96921.69
2023-10-20T19:06:22.568Z,96907.25
2023-10-20T19:08:52.256Z,96920.75
2023-10-20T19:11:20.797Z,96913.19
2023-10-20T19:13:55.896Z,96908.94
2023-10-20T19:16:24.158Z,96904.56
2023-10-20T19:18:54.162Z,96904.56
2023-10-20T19:21:23.086Z,96905.34
2023-10-20T19:23:51.213Z,96896.56
2023-10-20T19:26:19.505Z,96896.72
2023-10-20T19:28:47.915Z,96906.56
2023-10-20T19:31:15.386Z,96915.75
2023-10-20T19:33:42.894Z,96927.00
2023-10-20T19:36:11.094Z,96918.66
2023-10-20T19:38:39.174Z,96925.56
2023-10-20T19:41:07.605Z,96926.44
2023-10-20T19:43:34.663Z,96928.16
2023-10-20T19:46:02.741Z,96926.25
2023-10-20T19:48:30.152Z,96924.75
2023-10-20T19:50:58.561Z,96925.25
2023-10-20T19:53:26.410Z,96921.84
2023-10-20T19:55:53.637Z,96922.91
2023-10-20T19:58:21.877Z,96921.41
2023-10-20T20:00:49.740Z,96938.63
2023-10-20T20:03:16.980Z,96930.44
2023-10-20T20:05:44.283Z,96917.91
2023-10-20T20:08:11.489Z,96927.84
2023-10-20T20:10:38.494Z,96926.66
2023-10-20T20:13:06.553Z,96923.16
2023-10-20T20:15:33.641Z,96929.69
2023-10-20T20:18:00.685Z,96936.25
2023-10-20T20:20:27.866Z,96925.56
2023-10-20T20:22:55.108Z,96923.78
2023-10-20T20:25:22.270Z,96937.13
2023-10-20T20:27:49.574Z,96935.94
2023-10-20T20:30:16.917Z,96927.38
2023-10-20T20:32:44.149Z,96934.28
2023-10-20T20:35:11.146Z,96936.22
2023-10-20T20:37:38.115Z,96945.47
2023-10-20T20:40:06.617Z,96945.31
2023-10-20T20:42:33.560Z,96946.47
2023-10-20T20:45:00.541Z,96958.41
2023-10-20T20:47:27.524Z,96960.41
2023-10-20T20:49:54.473Z,96952.22
2023-10-20T20:52:21.409Z,96952.06
2023-10-20T20:54:48.321Z,96953.16
2023-10-20T20:57:15.199Z,96942.59
2023-10-20T20:59:42.252Z,96925.56
2023-10-20T21:02:09.281Z,96934.75
2023-10-20T21:04:36.296Z,96948.41
2023-10-20T21:07:04.264Z,96951.75
2023-10-20T21:09:32.713Z,96952.94
2023-10-20T21:11:59.714Z,96958.25
2023-10-20T21:14:26.786Z,96947.75
2023-10-20T21:16:54.268Z,96947.38
2023-10-20T21:19:21.214Z,96969.63
2023-10-20T21:21:48.177Z,96965.16
2023-10-20T21:24:14.996Z,96961.53
2023-10-20T21:26:42.151Z,96959.78
2023-10-20T21:29:09.056Z,96959.03
2023-10-20T21:31:35.958Z,96950.28
2023-10-20T21:34:02.896Z,96943.66
2023-10-20T21:36:30.176Z,96954.72
2023-10-20T21:38:57.162Z,96964.09
2023-10-20T21:41:24.353Z,96974.41
2023-10-20T21:43:51.262Z,96976.09
2023-10-20T21:46:18.211Z,96967.19
2023-10-20T21:48:45.310Z,96963.59
2023-10-20T21:51:12.412Z,96962.53
2023-10-20T21:53:40.165Z,96983.28
2023-10-20T21:56:09.337Z,96972.06
2023-10-20T21:58:37.118Z,96967.56
2023-10-20T22:01:05.718Z,96979.78
2023-10-20T22:03:32.978Z,96981.00
2023-10-20T22:06:01.230Z,96986.72
2023-10-20T22:08:28.173Z,96982.69
2023-10-20T22:10:55.245Z,96984.34
2023-10-20T22:13:22.267Z,96992.28
2023-10-20T22:15:49.812Z,96986.44
2023-10-20T22:18:16.905Z,96983.19
2023-10-20T22:20:44.560Z,96980.31
2023-10-20T22:23:12.054Z,96986.22
2023-10-20T22:25:39.697Z,96986.72
2023-10-20T22:28:07.134Z,96990.00
2023-10-20T22:30:34.279Z,97004.38
2023-10-20T22:33:01.416Z,96999.44
2023-10-20T22:35:28.611Z,97004.56
2023-10-20T22:37:55.642Z,97016.06
2023-10-20T22:40:22.787Z,97007.72
2023-10-20T22:42:49.930Z,97011.00
2023-10-20T22:45:16.991Z,97013.66
2023-10-20T22:47:44.074Z,97026.22
2023-10-20T22:50:11.090Z,97028.50
2023-10-20T22:52:38.062Z,97019.38
2023-10-20T22:55:05.307Z,97026.22
2023-10-20T22:57:32.331Z,97021.69
2023-10-20T22:59:59.268Z,97024.06
2023-10-20T23:02:26.250Z,97022.63
2023-10-20T23:04:53.217Z,97018.16
2023-10-20T23:07:20.387Z,97020.16
2023-10-20T23:09:47.341Z,97031.22
2023-10-20T23:12:14.279Z,97032.81
2023-10-20T23:14:41.285Z,97029.13
2023-10-20T23:17:08.357Z,97035.97
2023-10-20T23:19:37.438Z,97038.28
2023-10-20T23:22:04.761Z,97040.16
2023-10-20T23:24:31.707Z,97046.34
2023-10-20T23:26:58.643Z,97043.38
2023-10-20T23:29:25.617Z,97048.44
2023-10-20T23:31:52.625Z,97062.22
2023-10-20T23:34:19.518Z,97075.13
2023-10-20T23:36:46.380Z,97082.00
2023-10-20T23:39:13.435Z,97069.69
2023-10-20T23:41:40.446Z,97070.94
2023-10-20T23:44:07.517Z,97065.22
2023-10-20T23:46:34.401Z,97075.81
2023-10-20T23:49:02.502Z,97058.81
2023-10-20T23:51:29.562Z,97064.22
2023-10-20T23:53:56.511Z,97078.06
2023-10-20T23:56:23.645Z,97102.13
2023-10-20T23:58:50.524Z,97074.13
